Time;durP1;ratioP1;P1;durP2;ratioP2;P2;SDS_P1;SDS_P2;PMS_P1;PMS_P2;Temp;Humidity;BMP_temperature;BMP_pressure;BME280_temperature;BME280_humidity;BME280_pressure;Samples;Min_cycle;Max_cycle;Signal;HPM_P1;HPM_P2
2023/09/01 00:01:44;;;;;;;4.30;2.08;;;16.20;99.90;;;;;;5013067;28;20032;-50
2023/09/01 00:04:09;;;;;;;3.90;1.90;;;12.90;99.90;;;;;;5013053;28;20418;-46
2023/09/01 00:06:35;;;;;;;4.70;2.08;;;15.00;99.90;;;;;;5012671;28;20050;-53
2023/09/01 00:09:01;;;;;;;5.63;1.92;;;;;;;;;;5012772;28;20025;-45
2023/09/01 00:11:26;;;;;;;5.82;1.80;;;16.20;99.90;;;;;;5011688;28;20026;-52
2023/09/01 00:13:52;;;;;;;7.40;1.60;;;18.00;99.90;;;;;;5012898;28;20104;-54
2023/09/01 00:16:17;;;;;;;5.60;2.10;;;16.60;99.90;;;;;;5012860;28;20054;-44
2023/09/01 00:18:43;;;;;;;4.38;2.13;;;18.00;99.90;;;;;;5012624;28;20088;-50
2023/09/01 00:21:09;;;;;;;5.55;2.20;;;16.70;99.90;;;;;;5012698;28;20157;-44
2023/09/01 00:23:35;;;;;;;4.85;2.05;;;;;;;;;;5012550;28;20104;-46
2023/09/01 00:26:00;;;;;;;6.07;1.90;;;16.00;99.90;;;;;;5012360;28;20441;-44
2023/09/01 00:28:26;;;;;;;4.13;1.88;;;16.50;99.90;;;;;;5012530;28;20026;-48
2023/09/01 00:30:57;;;;;;;5.75;2.08;;;13.40;99.90;;;;;;5011461;28;20026;-48
2023/09/01 00:33:27;;;;;;;3.72;1.85;;;;;;;;;;4994977;28;20391;-49
2023/09/01 00:35:53;;;;;;;5.15;2.03;;;17.90;99.90;;;;;;5012332;28;20034;-45
2023/09/01 00:38:19;;;;;;;6.72;2.30;;;16.70;99.90;;;;;;4994927;28;20030;-46
2023/09/01 00:40:48;;;;;;;3.67;1.83;;;17.30;99.90;;;;;;5012241;28;20026;-49
2023/09/01 00:43:14;;;;;;;4.25;1.98;;;;;;;;;;5012174;28;20025;-50
2023/09/01 00:45:40;;;;;;;4.65;1.90;;;14.90;99.90;;;;;;5012384;28;20026;-48
2023/09/01 00:48:08;;;;;;;4.97;2.10;;;16.10;99.90;;;;;;5012007;28;20041;-50
2023/09/01 00:50:36;;;;;;;3.15;1.75;;;15.80;99.90;;;;;;5012235;28;20029;-46
2023/09/01 00:53:04;;;;;;;4.40;2.20;;;13.10;99.90;;;;;;5012344;28;20073;-44
2023/09/01 00:55:30;;;;;;;5.65;1.98;;;;;;;;;;5012122;28;20088;-50
2023/09/01 00:57:56;;;;;;;4.80;1.80;;;;;;;;;;5011639;28;20022;-48
2023/09/01 01:00:22;;;;;;;3.65;1.70;;;17.70;99.90;;;;;;5011967;28;20025;-49
2023/09/01 01:02:48;;;;;;;4.30;1.90;;;13.00;99.90;;;;;;5011824;28;20026;-47
2023/09/01 01:05:15;;;;;;;3.95;1.85;;;18.00;99.90;;;;;;5011701;28;20021;-45
2023/09/01 01:08:00;;;;;;;3.50;1.48;;;12.70;99.90;;;;;;5011484;28;20053;-44
2023/09/01 01:10:43;;;;;;;6.75;2.28;;;16.00;99.90;;;;;;5011559;28;20026;-44
2023/09/01 01:13:15;;;;;;;5.28;2.15;;;17.20;99.90;;;;;;5011575;28;20113;-45
2023/09/01 01:15:42;;;;;;;3.25;1.67;;;16.50;99.90;;;;;;4998347;28;20529;-47
2023/09/01 01:18:11;;;;;;;3.97;1.65;;;17.10;99.90;;;;;;5011389;28;20034;-46
2023/09/01 01:21:00;;;;;;;5.68;2.08;;;16.00;99.90;;;;;;5011334;28;20045;-47
2023/09/01 01:23:26;;;;;;;6.63;2.30;;;16.70;99.90;;;;;;5011726;28;20034;-47
2023/09/01 01:25:52;;;;;;;3.70;2.05;;;16.60;99.90;;;;;;5011272;28;20113;-43
2023/09/01 01:28:20;;;;;;;4.45;1.65;;;13.20;99.90;;;;;;5011735;28;20025;-50
2023/09/01 01:30:47;;;;;;;4.38;1.83;;;16.10;99.90;;;;;;5011471;28;20026;-47
2023/09/01 01:33:21;;;;;;;4.65;1.92;;;16.80;99.90;;;;;;5011357;28;20026;-45
2023/09/01 01:36:18;;;;;;;3.30;1.80;;;17.50;99.90;;;;;;5011419;28;20045;-49
2023/09/01 01:38:57;;;;;;;5.95;1.85;;;16.70;99.90;;;;;;5011259;28;20506;-44
2023/09/01 01:41:53;;;;;;;5.45;1.90;;;17.90;99.90;;;;;;5011235;28;20017;-44
2023/09/01 01:44:26;;;;;;;4.97;2.35;;;16.90;99.90;;;;;;5011144;28;20441;-50
2023/09/01 01:46:52;;;;;;;4.53;1.83;;;16.50;99.90;;;;;;5011138;28;20072;-52
2023/09/01 01:49:18;;;;;;;3.00;1.40;;;16.90;99.90;;;;;;5011246;28;20076;-49
2023/09/01 01:51:44;;;;;;;3.25;1.52;;;17.30;99.90;;;;;;5009789;28;20058;-45
2023/09/01 01:54:10;;;;;;;6.78;1.77;;;13.60;99.90;;;;;;5010890;28;20065;-46
2023/09/01 01:56:35;;;;;;;2.90;1.30;;;16.30;99.90;;;;;;5010672;28;20034;-47
2023/09/01 01:59:04;;;;;;;4.75;1.20;;;17.70;99.90;;;;;;5010816;28;20040;-46
2023/09/01 02:01:33;;;;;;;2.80;1.30;;;17.30;99.90;;;;;;5010684;28;20080;-45
2023/09/01 02:03:59;;;;;;;2.40;1.20;;;17.30;99.90;;;;;;5010996;28;20029;-50
2023/09/01 02:06:24;;;;;;;2.67;1.40;;;17.30;99.90;;;;;;5010513;28;20096;-47
2023/09/01 02:08:50;;;;;;;2.25;1.10;;;17.60;99.90;;;;;;5010747;28;20028;-49
2023/09/01 02:11:16;;;;;;;2.67;1.38;;;17.60;99.90;;;;;;5010936;28;20037;-46
2023/09/01 02:13:42;;;;;;;2.28;1.17;;;17.00;99.90;;;;;;5010453;28;20084;-45
2023/09/01 02:16:07;;;;;;;2.38;1.00;;;17.90;99.90;;;;;;5010868;28;20049;-46
2023/09/01 02:18:33;;;;;;;6.22;1.40;;;17.60;99.90;;;;;;5010663;28;20026;-47
2023/09/01 02:20:59;;;;;;;4.30;1.60;;;17.50;99.90;;;;;;5010835;28;20021;-46
2023/09/01 02:23:25;;;;;;;2.90;1.20;;;;;;;;;;5010570;28;20032;-46
2023/09/01 02:25:51;;;;;;;1.85;1.00;;;17.50;99.90;;;;;;5010588;28;20398;-50
2023/09/01 02:28:16;;;;;;;2.97;1.20;;;18.10;99.90;;;;;;5010662;28;20041;-46
2023/09/01 02:30:42;;;;;;;2.47;1.17;;;17.70;99.90;;;;;;5010322;28;20096;-47
2023/09/01 02:33:08;;;;;;;2.53;1.13;;;16.60;99.90;;;;;;5010586;28;20037;-49
2023/09/01 02:35:42;;;;;;;1.63;0.90;;;16.80;99.90;;;;;;5010070;28;20100;-46
2023/09/01 02:38:08;;;;;;;0.85;0.65;;;16.70;99.90;;;;;;5010425;28;20050;-45
2023/09/01 02:40:33;;;;;;;1.75;0.70;;;13.10;99.90;;;;;;5010435;28;20497;-45
2023/09/01 02:42:59;;;;;;;1.10;0.60;;;13.40;99.90;;;;;;5010439;28;20467;-45
2023/09/01 02:45:24;;;;;;;1.50;0.70;;;17.80;99.90;;;;;;5010655;28;20092;-47
2023/09/01 02:47:50;;;;;;;1.75;0.50;;;16.90;99.90;;;;;;5010236;28;20030;-45
2023/09/01 02:50:16;;;;;;;1.88;0.70;;;15.50;99.90;;;;;;5010354;28;20026;-45
2023/09/01 02:52:42;;;;;;;0.88;0.50;;;17.90;99.90;;;;;;5010210;28;20152;-45
2023/09/01 02:55:08;;;;;;;1.52;0.70;;;16.30;99.90;;;;;;5012808;28;20160;-45
2023/09/01 02:57:35;;;;;;;1.65;0.65;;;16.10;99.90;;;;;;4996198;28;20415;-45
2023/09/01 03:00:00;;;;;;;1.00;0.75;;;19.00;99.90;;;;;;5014001;28;20033;-50
2023/09/01 03:02:26;;;;;;;1.08;0.80;;;19.00;99.90;;;;;;5014036;28;20131;-47
2023/09/01 03:04:56;;;;;;;1.67;0.65;;;13.20;99.90;;;;;;5013787;28;20061;-45
2023/09/01 03:07:23;;;;;;;0.70;0.40;;;18.90;99.90;;;;;;5013712;28;20112;-49
2023/09/01 03:09:49;;;;;;;0.40;0.40;;;15.30;99.90;;;;;;5013736;28;20032;-51
2023/09/01 03:12:16;;;;;;;0.63;0.40;;;;;;;;;;5013750;28;20026;-46
2023/09/01 03:14:42;;;;;;;1.10;0.50;;;14.00;99.90;;;;;;5013605;28;20038;-53
2023/09/01 03:17:08;;;;;;;0.30;0.30;;;19.10;99.90;;;;;;5013816;28;20090;-49
2023/09/01 03:19:34;;;;;;;0.35;0.30;;;17.40;99.90;;;;;;5013868;28;20045;-48
2023/09/01 03:21:59;;;;;;;0.93;0.47;;;16.60;99.90;;;;;;5013633;28;20033;-45
2023/09/01 03:24:25;;;;;;;0.52;0.30;;;18.10;99.90;;;;;;5013834;28;20030;-46
2023/09/01 03:26:50;;;;;;;0.38;0.20;;;17.90;99.90;;;;;;5013294;28;20037;-49
2023/09/01 03:29:16;;;;;;;0.43;0.38;;;16.80;99.90;;;;;;5013901;28;20071;-48
2023/09/01 03:31:42;;;;;;;0.65;0.30;;;17.70;99.90;;;;;;5013253;28;20025;-51
2023/09/01 03:34:09;;;;;;;0.20;0.20;;;18.70;99.90;;;;;;5013581;28;20037;-52
2023/09/01 03:36:36;;;;;;;0.28;0.22;;;14.00;99.90;;;;;;5013413;28;20022;-53
2023/09/01 03:39:02;;;;;;;0.30;0.30;;;;;;;;;;5012955;28;20037;-45
2023/09/01 03:41:28;;;;;;;0.30;0.30;;;;;;;;;;5013109;28;20502;-52
2023/09/01 03:43:54;;;;;;;0.20;0.20;;;17.80;99.90;;;;;;5012913;28;20029;-45
2023/09/01 03:46:19;;;;;;;0.20;0.20;;;18.40;99.90;;;;;;5013166;28;20136;-48
2023/09/01 03:48:45;;;;;;;0.63;0.30;;;;;;;;;;5012853;28;20478;-46
2023/09/01 03:51:15;;;;;;;0.30;0.30;;;19.30;99.90;;;;;;5012896;28;20029;-44
2023/09/01 03:53:42;;;;;;;0.25;0.22;;;16.60;99.90;;;;;;5012769;28;20098;-45
2023/09/01 03:56:16;;;;;;;0.20;0.20;;;17.40;99.90;;;;;;5012902;28;20121;-44
2023/09/01 03:58:42;;;;;;;0.38;0.20;;;16.60;99.90;;;;;;5012886;28;20033;-45
2023/09/01 04:01:08;;;;;;;0.20;0.20;;;17.40;99.90;;;;;;5012588;28;20026;-44
2023/09/01 04:03:45;;;;;;;0.63;0.25;;;17.80;99.90;;;;;;5012825;28;20018;-49
2023/09/01 04:06:11;;;;;;;0.22;0.22;;;13.20;99.90;;;;;;5010997;28;20506;-48
2023/09/01 04:08:37;;;;;;;1.20;0.30;;;17.60;99.90;;;;;;5012596;28;20026;-47
2023/09/01 04:11:03;;;;;;;2.92;0.20;;;16.50;99.90;;;;;;5012795;28;20403;-49
2023/09/01 04:13:33;;;;;;;0.15;0.15;;;16.90;99.90;;;;;;5012529;28;20025;-47
2023/09/01 04:15:59;;;;;;;0.35;0.20;;;17.60;99.90;;;;;;5012551;28;20037;-45
2023/09/01 04:18:24;;;;;;;0.63;0.30;;;17.60;99.90;;;;;;5012455;28;20438;-46
2023/09/01 04:20:51;;;;;;;0.45;0.30;;;17.80;99.90;;;;;;5012221;28;20601;-46
2023/09/01 04:23:17;;;;;;;0.30;0.30;;;17.20;99.90;;;;;;5012264;28;20101;-49
2023/09/01 04:25:47;;;;;;;1.55;0.30;;;17.20;99.90;;;;;;5012292;28;20113;-47
2023/09/01 04:28:14;;;;;;;0.20;0.20;;;16.80;99.90;;;;;;5012191;28;20034;-49
2023/09/01 04:30:40;;;;;;;1.13;0.38;;;17.60;99.90;;;;;;5012143;28;20018;-51
2023/09/01 04:33:06;;;;;;;0.63;0.47;;;16.60;99.90;;;;;;5012194;28;20030;-54
2023/09/01 04:35:34;;;;;;;1.00;0.60;;;16.90;99.90;;;;;;5011848;28;20486;-51
2023/09/01 04:38:00;;;;;;;1.35;0.63;;;18.30;99.90;;;;;;5012059;28;20022;-53
2023/09/01 04:40:27;;;;;;;2.42;0.75;;;;;;;;;;5011982;28;20037;-47
2023/09/01 04:42:53;;;;;;;2.15;0.90;;;13.40;99.90;;;;;;5011913;28;20064;-49
2023/09/01 04:45:18;;;;;;;1.63;0.98;;;17.10;99.90;;;;;;5011942;28;20073;-45
2023/09/01 04:47:44;;;;;;;4.03;1.00;;;16.90;99.90;;;;;;4994297;28;20072;-53
2023/09/01 04:50:10;;;;;;;1.95;1.00;;;16.60;99.90;;;;;;5011897;28;20375;-47
2023/09/01 04:52:36;;;;;;;2.75;0.93;;;;;;;;;;5011974;28;20033;-53
2023/09/01 04:55:03;;;;;;;4.30;1.05;;;18.90;99.90;;;;;;5012282;28;20109;-45
2023/09/01 04:57:30;;;;;;;1.50;0.77;;;13.40;99.90;;;;;;5012392;28;20022;-47
2023/09/01 04:59:56;;;;;;;2.08;0.90;;;18.50;99.90;;;;;;5012649;28;20030;-47
2023/09/01 05:02:21;;;;;;;2.92;1.20;;;17.70;99.90;;;;;;4994884;28;20026;-45
2023/09/01 05:04:47;;;;;;;1.80;0.82;;;17.30;99.90;;;;;;5011674;28;20022;-45
2023/09/01 05:07:12;;;;;;;2.10;1.20;;;17.20;99.90;;;;;;5011566;28;20100;-44
2023/09/01 05:09:38;;;;;;;2.45;1.20;;;17.80;99.90;;;;;;5011667;28;20022;-44
2023/09/01 05:12:04;;;;;;;1.75;0.82;;;16.90;99.90;;;;;;5011858;28;20391;-44
2023/09/01 05:14:30;;;;;;;2.58;1.25;;;16.80;99.90;;;;;;5011727;28;20053;-49
2023/09/01 05:16:56;;;;;;;1.52;0.90;;;18.90;99.90;;;;;;5011216;28;20021;-45
2023/09/01 05:19:22;;;;;;;3.83;1.50;;;18.00;99.90;;;;;;5011468;28;20033;-48
2023/09/01 05:21:48;;;;;;;2.42;1.15;;;17.90;99.90;;;;;;5011344;28;20024;-48
2023/09/01 05:24:14;;;;;;;4.13;1.70;;;18.20;99.90;;;;;;5011299;28;20060;-47
2023/09/01 05:26:40;;;;;;;3.78;1.60;;;;;;;;;;5011267;28;20045;-45
2023/09/01 05:29:06;;;;;;;4.38;1.48;;;;;;;;;;5011569;28;20029;-49
2023/09/01 05:31:32;;;;;;;3.05;1.73;;;;;;;;;;5011344;28;20540;-45
2023/09/01 05:33:57;;;;;;;2.95;1.23;;;14.10;99.90;;;;;;5011005;28;20049;-44
2023/09/01 05:36:23;;;;;;;2.28;1.30;;;17.50;99.90;;;;;;5011293;28;20054;-44
2023/09/01 05:38:48;;;;;;;5.13;1.70;;;17.00;99.90;;;;;;5011114;28;20038;-46
2023/09/01 05:41:14;;;;;;;2.85;1.20;;;17.40;99.90;;;;;;5011119;28;20466;-47
2023/09/01 05:43:40;;;;;;;5.22;1.38;;;;;;;;;;5011045;28;20026;-44
2023/09/01 05:46:06;;;;;;;4.15;1.40;;;;;;;;;;5010947;28;20116;-44
2023/09/01 05:48:32;;;;;;;3.95;1.42;;;17.70;99.90;;;;;;5010889;28;20572;-49
2023/09/01 05:50:58;;;;;;;3.53;1.55;;;;;;;;;;5010937;28;20054;-47
2023/09/01 05:53:25;;;;;;;2.97;1.33;;;18.30;99.90;;;;;;5010808;28;20084;-48
2023/09/01 05:55:51;;;;;;;2.78;1.42;;;18.40;99.90;;;;;;5010745;28;20038;-46
2023/09/01 05:58:16;;;;;;;2.38;1.20;;;17.10;99.90;;;;;;5011043;28;20033;-45
2023/09/01 06:00:42;;;;;;;2.30;1.10;;;17.30;99.90;;;;;;5010817;28;20541;-44
2023/09/01 06:03:07;;;;;;;4.15;1.60;;;13.70;99.90;;;;;;5010660;28;20022;-47
2023/09/01 06:05:33;;;;;;;3.03;1.38;;;18.40;99.90;;;;;;5010623;28;20029;-44
2023/09/01 06:08:00;;;;;;;3.00;1.45;;;20.70;99.90;;;;;;5010937;28;20049;-43
2023/09/01 06:10:25;;;;;;;2.15;1.02;;;13.50;99.90;;;;;;5010972;28;20449;-47
2023/09/01 06:12:51;;;;;;;3.67;1.77;;;17.20;99.90;;;;;;5010801;28;20483;-43
2023/09/01 06:15:17;;;;;;;3.00;1.33;;;18.90;99.90;;;;;;5010560;28;20037;-51
2023/09/01 06:17:42;;;;;;;2.38;1.17;;;17.70;99.90;;;;;;5010664;28;20037;-45
2023/09/01 06:20:08;;;;;;;3.33;1.60;;;18.90;99.90;;;;;;5010635;28;20030;-46
2023/09/01 06:22:34;;;;;;;2.97;1.40;;;;;;;;;;5010395;28;20022;-43
2023/09/01 06:25:00;;;;;;;2.47;1.40;;;;;;;;;;5010391;28;20084;-48
2023/09/01 06:27:26;;;;;;;2.63;1.40;;;17.70;99.90;;;;;;5010629;28;20025;-48
2023/09/01 06:29:52;;;;;;;2.25;1.48;;;17.90;99.90;;;;;;5009712;28;20030;-52
2023/09/01 06:32:18;;;;;;;4.43;1.33;;;;;;;;;;5010235;28;20309;-48
2023/09/01 06:34:44;;;;;;;2.88;1.55;;;14.40;99.90;;;;;;5010454;28;20034;-43
2023/09/01 06:37:09;;;;;;;4.03;1.40;;;;;;;;;;5010349;28;20442;-45
2023/09/01 06:39:35;;;;;;;3.33;2.00;;;18.30;99.90;;;;;;5010432;28;20036;-44
2023/09/01 06:42:01;;;;;;;4.40;1.75;;;19.20;99.90;;;;;;5010344;28;20022;-43
2023/09/01 06:44:27;;;;;;;3.17;1.65;;;17.90;99.90;;;;;;5010493;28;20489;-49
2023/09/01 06:46:52;;;;;;;3.63;1.48;;;18.00;99.90;;;;;;5010052;28;20030;-45
2023/09/01 06:49:18;;;;;;;2.78;1.55;;;14.70;99.90;;;;;;5010257;28;20128;-54
2023/09/01 06:51:43;;;;;;;3.45;1.92;;;14.00;99.90;;;;;;5010298;28;20057;-51
2023/09/01 06:54:09;;;;;;;3.50;1.75;;;17.20;99.90;;;;;;5009958;28;20034;-45
2023/09/01 06:56:34;;;;;;;4.20;1.88;;;18.10;99.90;;;;;;5010191;28;20022;-43
2023/09/01 06:59:00;;;;;;;5.03;1.60;;;18.90;99.90;;;;;;5010018;28;20033;-43
2023/09/01 07:01:29;;;;;;;4.78;2.05;;;19.10;99.90;;;;;;5010573;28;20125;-43
2023/09/01 07:03:55;;;;;;;2.92;1.63;;;17.90;99.90;;;;;;4992546;28;20030;-47
2023/09/01 07:06:20;;;;;;;4.78;1.55;;;19.10;99.90;;;;;;4992233;28;20084;-46
2023/09/01 07:08:46;;;;;;;4.90;2.03;;;19.00;99.90;;;;;;5010086;28;20026;-49
2023/09/01 07:11:14;;;;;;;5.60;1.83;;;;;;;;;;5010007;28;20064;-43
2023/09/01 07:13:40;;;;;;;4.07;1.92;;;18.70;99.90;;;;;;5009984;28;20022;-45
2023/09/01 07:16:06;;;;;;;3.53;1.55;;;18.50;99.90;;;;;;5009788;28;20053;-50
2023/09/01 07:18:32;;;;;;;3.25;1.50;;;18.00;99.90;;;;;;5010101;28;20056;-55
2023/09/01 07:20:59;;;;;;;3.38;1.58;;;18.10;99.90;;;;;;5010043;28;20053;-43
2023/09/01 07:23:26;;;;;;;3.58;1.52;;;17.90;99.90;;;;;;5009611;28;20018;-44
2023/09/01 07:25:52;;;;;;;3.15;1.40;;;19.60;99.90;;;;;;5009925;28;20060;-46
2023/09/01 07:28:18;;;;;;;1.90;1.15;;;18.90;99.90;;;;;;5009772;28;20018;-43
2023/09/01 07:30:44;;;;;;;4.85;1.13;;;18.70;99.90;;;;;;5009503;28;20022;-44
2023/09/01 07:33:10;;;;;;;4.57;1.05;;;;;;;;;;5009850;28;20029;-47
2023/09/01 07:35:36;;;;;;;3.08;1.20;;;;;;;;;;5009563;28;20041;-48
2023/09/01 07:38:03;;;;;;;1.55;0.98;;;19.80;99.90;;;;;;5009976;28;20057;-46
2023/09/01 07:40:32;;;;;;;3.63;1.15;;;20.00;99.90;;;;;;5011076;28;20076;-45
2023/09/01 07:42:58;;;;;;;1.77;0.88;;;;;;;;;;5012899;28;20029;-42
2023/09/01 07:45:24;;;;;;;2.42;1.00;;;14.70;99.90;;;;;;5013418;28;20125;-51
2023/09/01 07:47:50;;;;;;;1.90;0.95;;;14.70;99.90;;;;;;5013297;28;20100;-51
2023/09/01 07:50:15;;;;;;;1.13;0.70;;;19.70;99.90;;;;;;5013085;28;20032;-47
2023/09/01 07:52:41;;;;;;;1.13;0.70;;;;;;;;;;5013132;28;20061;-52
2023/09/01 07:55:07;;;;;;;2.95;0.88;;;19.40;99.90;;;;;;5012853;28;20092;-46
2023/09/01 07:57:33;;;;;;;2.47;0.90;;;19.10;99.90;;;;;;5008706;28;20490;-51
2023/09/01 07:59:58;;;;;;;3.00;0.88;;;19.10;99.90;;;;;;5010788;28;20034;-43
2023/09/01 08:02:24;;;;;;;1.90;1.00;;;18.90;99.90;;;;;;5013194;28;20431;-46
2023/09/01 08:04:49;;;;;;;1.15;0.70;;;20.10;99.90;;;;;;5012801;28;20451;-41
2023/09/01 08:07:15;;;;;;;1.27;0.68;;;18.20;99.90;;;;;;5012802;28;20503;-45
2023/09/01 08:09:41;;;;;;;1.55;0.75;;;20.40;99.90;;;;;;5012270;28;20125;-44
2023/09/01 08:12:08;;;;;;;0.85;0.57;;;;;;;;;;5012813;28;20032;-44
2023/09/01 08:14:34;;;;;;;0.50;0.30;;;;;;;;;;5012404;28;20486;-43
2023/09/01 08:16:59;;;;;;;0.60;0.50;;;19.80;99.90;;;;;;5012294;28;20021;-49
2023/09/01 08:19:25;;;;;;;0.70;0.50;;;19.20;99.90;;;;;;5011456;28;20131;-41
2023/09/01 08:21:51;;;;;;;0.60;0.50;;;;;;;;;;5010986;28;20486;-41
2023/09/01 08:24:17;;;;;;;2.75;0.80;;;18.60;99.90;;;;;;5012471;28;20025;-45
2023/09/01 08:26:43;;;;;;;0.40;0.40;;;19.70;99.90;;;;;;5012136;28;20364;-45
2023/09/01 08:29:08;;;;;;;0.40;0.40;;;20.30;99.90;;;;;;5012282;28;20065;-47
2023/09/01 08:31:34;;;;;;;0.47;0.22;;;20.40;99.90;;;;;;5012669;28;20030;-48
2023/09/01 08:34:00;;;;;;;1.23;0.43;;;18.10;99.90;;;;;;5012152;28;20116;-45
2023/09/01 08:36:26;;;;;;;1.67;0.32;;;15.50;99.90;;;;;;5012505;28;20030;-46
2023/09/01 08:38:52;;;;;;;0.32;0.32;;;20.80;99.90;;;;;;5012349;28;20045;-44
2023/09/01 08:41:18;;;;;;;0.70;0.38;;;;;;;;;;5012488;28;20018;-44
2023/09/01 08:43:46;;;;;;;0.20;0.20;;;19.00;99.90;;;;;;5012103;28;20531;-48
2023/09/01 08:46:16;;;;;;;1.47;0.40;;;19.10;99.90;;;;;;5012048;28;20482;-42
2023/09/01 08:48:42;;;;;;;1.42;0.40;;;19.10;99.90;;;;;;5012182;28;20486;-42
2023/09/01 08:51:08;;;;;;;0.73;0.40;;;;;;;;;;5011448;28;20033;-50
2023/09/01 08:53:35;;;;;;;4.40;0.55;;;18.90;99.90;;;;;;5011366;28;20029;-50
2023/09/01 08:56:00;;;;;;;0.40;0.20;;;19.10;99.90;;;;;;5010624;28;20083;-49
2023/09/01 08:58:26;;;;;;;0.73;0.30;;;;;;;;;;5011805;28;20025;-42
2023/09/01 09:00:52;;;;;;;0.55;0.40;;;15.40;99.90;;;;;;5011453;28;20482;-46
2023/09/01 09:03:17;;;;;;;2.03;0.30;;;15.40;99.90;;;;;;5011899;28;20035;-48
2023/09/01 09:05:46;;;;;;;1.55;0.40;;;20.60;99.90;;;;;;5011854;28;20049;-41
2023/09/01 09:08:12;;;;;;;0.30;0.30;;;20.50;99.90;;;;;;5011729;28;20021;-41
2023/09/01 09:10:40;;;;;;;0.60;0.30;;;18.50;99.90;;;;;;4994455;28;20034;-41
2023/09/01 09:13:25;;;;;;;0.65;0.30;;;21.50;99.90;;;;;;4994341;28;20030;-43
2023/09/01 09:16:09;;;;;;;0.40;0.30;;;20.30;99.90;;;;;;5010263;28;20052;-46
2023/09/01 09:18:36;;;;;;;0.85;0.40;;;17.40;99.90;;;;;;5010823;28;20509;-42
2023/09/01 09:21:01;;;;;;;1.77;0.47;;;19.10;99.90;;;;;;5010102;28;20187;-42
2023/09/01 09:23:44;;;;;;;0.98;0.40;;;18.70;99.90;;;;;;5010389;28;20102;-42
2023/09/01 09:26:10;;;;;;;2.15;0.40;;;;;;;;;;5011607;28;20105;-45
2023/09/01 09:28:36;;;;;;;2.38;0.60;;;;;;;;;;5011037;28;20060;-45
2023/09/01 09:31:02;;;;;;;0.82;0.40;;;16.00;99.90;;;;;;5011343;28;20045;-45
2023/09/01 09:33:30;;;;;;;1.35;1.05;;;19.90;99.90;;;;;;5011341;28;20621;-42
2023/09/01 09:35:56;;;;;;;1.10;0.40;;;15.40;99.90;;;;;;5011225;28;20088;-44
2023/09/01 09:38:22;;;;;;;0.82;0.40;;;19.00;99.90;;;;;;5010749;28;20490;-44
2023/09/01 09:40:58;;;;;;;1.85;0.35;;;19.20;99.90;;;;;;5010703;28;20095;-45
2023/09/01 09:43:24;;;;;;;0.90;0.40;;;20.10;99.90;;;;;;5011006;28;20026;-44
2023/09/01 09:45:53;;;;;;;0.20;0.20;;;19.30;99.90;;;;;;5010971;28;20028;-44
2023/09/01 09:48:19;;;;;;;0.40;0.20;;;21.40;99.90;;;;;;5011092;28;20026;-46
2023/09/01 09:50:50;;;;;;;0.20;0.20;;;19.90;99.90;;;;;;5010586;28;20026;-45
2023/09/01 09:53:20;;;;;;;0.43;0.25;;;20.50;99.90;;;;;;5010626;28;20034;-42
2023/09/01 09:55:48;;;;;;;0.45;0.30;;;19.70;99.90;;;;;;5010258;28;20117;-42
2023/09/01 09:58:21;;;;;;;0.25;0.25;;;19.60;99.90;;;;;;5010950;28;20099;-45
2023/09/01 10:00:55;;;;;;;1.92;0.30;;;21.10;99.90;;;;;;5010184;28;20033;-50
2023/09/01 10:03:23;;;;;;;0.30;0.20;;;19.40;99.90;;;;;;5010889;28;20017;-48
2023/09/01 10:05:54;;;;;;;0.87;0.20;;;22.40;99.90;;;;;;5010633;28;20054;-40
2023/09/01 10:08:21;;;;;;;0.30;0.30;;;20.40;99.90;;;;;;5010687;28;20343;-48
2023/09/01 10:10:49;;;;;;;1.92;0.77;;;;;;;;;;5010632;28;20026;-40
2023/09/01 10:13:15;;;;;;;1.10;0.50;;;;;;;;;;5010386;28;20022;-43
2023/09/01 10:15:41;;;;;;;1.15;0.55;;;20.30;99.90;;;;;;5010461;28;20038;-44
2023/09/01 10:18:08;;;;;;;0.70;0.50;;;20.10;99.90;;;;;;5010817;28;20026;-44
2023/09/01 10:20:42;;;;;;;1.48;0.60;;;19.60;99.90;;;;;;5010479;28;20030;-42
2023/09/01 10:23:09;;;;;;;1.38;0.73;;;20.40;99.90;;;;;;5010622;28;20367;-45
2023/09/01 10:25:35;;;;;;;0.95;0.68;;;19.50;99.90;;;;;;5010348;28;20084;-48
2023/09/01 10:28:11;;;;;;;1.77;1.00;;;20.00;99.90;;;;;;5010826;28;20026;-45
2023/09/01 10:30:44;;;;;;;3.55;1.10;;;19.10;99.90;;;;;;5010225;28;20467;-46
2023/09/01 10:33:25;;;;;;;3.08;1.00;;;20.80;99.90;;;;;;5010419;28;20196;-42
2023/09/01 10:35:57;;;;;;;1.52;0.93;;;20.40;99.90;;;;;;4988720;28;20517;-45
2023/09/01 10:38:36;;;;;;;2.78;0.68;;;20.40;99.90;;;;;;5010235;28;20080;-43
2023/09/01 10:41:03;;;;;;;1.40;0.90;;;20.60;99.90;;;;;;5009675;28;20479;-45
2023/09/01 10:43:34;;;;;;;2.83;0.85;;;21.80;99.90;;;;;;5009955;28;20093;-45
2023/09/01 10:46:26;;;;;;;1.83;0.82;;;19.50;99.90;;;;;;5010094;28;20022;-48
2023/09/01 10:48:59;;;;;;;1.38;0.80;;;21.70;99.90;;;;;;4998335;28;20034;-48
2023/09/01 10:51:37;;;;;;;4.00;1.10;;;19.40;99.90;;;;;;5010116;28;20108;-46
2023/09/01 10:54:22;;;;;;;1.50;0.80;;;21.80;99.90;;;;;;5010103;28;20474;-48
2023/09/01 10:56:58;;;;;;;2.15;0.98;;;20.00;99.90;;;;;;5009927;28;20025;-45
2023/09/01 10:59:36;;;;;;;3.10;0.85;;;22.80;99.90;;;;;;5009992;28;20084;-50
2023/09/01 11:02:24;;;;;;;1.33;0.82;;;22.00;99.90;;;;;;5010254;28;20033;-43
2023/09/01 11:04:50;;;;;;;3.70;1.23;;;21.80;99.90;;;;;;4990275;28;20026;-41
2023/09/01 11:07:16;;;;;;;2.33;0.82;;;23.00;99.90;;;;;;5009193;28;20060;-45
2023/09/01 11:09:42;;;;;;;2.08;1.05;;;;;;;;;;5009535;28;20017;-46
2023/09/01 11:12:09;;;;;;;1.23;0.80;;;22.30;99.90;;;;;;5010101;28;20398;-42
2023/09/01 11:14:51;;;;;;;2.17;0.80;;;22.40;99.90;;;;;;5009949;28;20038;-44
2023/09/01 11:17:30;;;;;;;2.53;0.68;;;21.80;99.90;;;;;;5005691;28;20026;-45
2023/09/01 11:19:56;;;;;;;;;;;21.70;99.90;;;;;;4996184;28;20033;-54
2023/09/01 11:22:21;;;;;;;1.25;0.80;;;21.20;99.90;;;;;;5011131;28;19909;-43
2023/09/01 11:24:47;;;;;;;1.40;0.80;;;22.40;99.90;;;;;;5017141;28;20374;-53
2023/09/01 11:27:13;;;;;;;1.48;0.73;;;20.60;99.90;;;;;;5021348;28;21345;-46
2023/09/01 11:29:39;;;;;;;1.52;0.80;;;22.70;99.90;;;;;;5013797;28;20104;-47
2023/09/01 11:32:05;;;;;;;2.40;0.40;;;21.80;99.90;;;;;;5020712;28;20084;-47
2023/09/01 11:34:38;;;;;;;0.90;0.50;;;22.00;99.90;;;;;;5012505;28;20021;-42
2023/09/01 11:37:04;;;;;;;0.55;0.40;;;;;;;;;;5016052;28;20033;-43
2023/09/01 11:39:29;;;;;;;0.90;0.50;;;22.20;99.90;;;;;;5013381;28;20102;-44
2023/09/01 11:41:55;;;;;;;0.40;0.40;;;22.70;99.90;;;;;;5012876;28;20138;-47
2023/09/01 11:44:22;;;;;;;2.35;0.40;;;22.30;99.90;;;;;;5013373;28;20030;-44
2023/09/01 11:46:48;;;;;;;0.50;0.32;;;22.90;99.90;;;;;;5012720;28;20026;-48
2023/09/01 11:49:16;;;;;;;0.40;0.40;;;22.80;99.90;;;;;;4995506;28;20447;-46
2023/09/01 11:51:42;;;;;;;1.17;0.60;;;24.80;99.90;;;;;;5011930;28;20029;-49
2023/09/01 11:54:08;;;;;;;0.50;0.40;;;22.80;99.90;;;;;;5011732;28;20507;-52
2023/09/01 11:56:34;;;;;;;0.55;0.38;;;23.10;99.90;;;;;;5012845;28;20080;-50
2023/09/01 11:59:00;;;;;;;0.30;0.30;;;23.50;99.90;;;;;;5012909;28;20026;-52
2023/09/01 12:01:35;;;;;;;0.43;0.40;;;22.70;99.90;;;;;;5012682;28;20441;-49
2023/09/01 12:04:09;;;;;;;2.10;0.63;;;22.90;99.90;;;;;;5012707;28;20034;-51
2023/09/01 12:06:44;;;;;;;1.95;0.55;;;23.10;99.90;;;;;;4994965;28;20084;-49
2023/09/01 12:09:18;;;;;;;1.15;0.50;;;24.10;99.90;;;;;;5012867;28;20030;-56
2023/09/01 12:12:00;;;;;;;1.05;0.45;;;23.50;99.90;;;;;;5010650;28;20104;-42
2023/09/01 12:14:26;;;;;;;2.67;0.60;;;25.30;99.90;;;;;;5012547;28;20513;-50
2023/09/01 12:16:53;;;;;;;1.40;0.65;;;24.20;99.90;;;;;;5012770;28;20030;-50
2023/09/01 12:19:23;;;;;;;0.57;0.45;;;23.80;99.90;;;;;;5011229;28;20491;-47
2023/09/01 12:21:49;;;;;;;1.25;0.40;;;26.20;99.90;;;;;;5012071;28;20076;-48
2023/09/01 12:24:15;;;;;;;0.35;0.35;;;23.90;99.90;;;;;;5012336;28;20026;-49
2023/09/01 12:26:40;;;;;;;0.52;0.45;;;26.10;99.90;;;;;;5010967;28;20022;-42
2023/09/01 12:29:06;;;;;;;1.85;0.40;;;24.50;99.90;;;;;;5011732;28;20376;-44
2023/09/01 12:31:31;;;;;;;2.00;0.68;;;22.80;99.90;;;;;;5012286;28;20022;-45
2023/09/01 12:33:57;;;;;;;0.60;0.43;;;25.50;99.90;;;;;;5012163;28;20037;-43
2023/09/01 12:36:23;;;;;;;0.80;0.50;;;24.50;99.90;;;;;;5012002;28;20075;-47
2023/09/01 12:38:48;;;;;;;0.43;0.43;;;24.10;99.90;;;;;;5011702;28;20018;-47
2023/09/01 12:41:14;;;;;;;2.53;0.90;;;24.80;99.90;;;;;;5011686;28;20026;-44
2023/09/01 12:43:39;;;;;;;1.15;0.68;;;23.80;99.90;;;;;;5012163;28;20018;-43
2023/09/01 12:46:08;;;;;;;0.77;0.57;;;25.80;99.90;;;;;;5010979;28;20104;-47
2023/09/01 12:48:34;;;;;;;0.93;0.60;;;23.60;99.90;;;;;;5006227;28;20030;-45
2023/09/01 12:50:59;;;;;;;0.82;0.60;;;23.70;99.90;;;;;;5010562;28;20036;-49
2023/09/01 12:53:25;;;;;;;1.17;0.73;;;23.50;99.90;;;;;;5011347;28;20117;-42
2023/09/01 12:55:51;;;;;;;1.60;0.60;;;20.00;99.90;;;;;;5010960;28;20735;-49
2023/09/01 12:58:16;;;;;;;0.70;0.50;;;23.20;99.90;;;;;;5011147;28;20418;-43
2023/09/01 13:00:43;;;;;;;0.50;0.50;;;24.10;99.90;;;;;;5010491;28;20406;-45
2023/09/01 13:03:09;;;;;;;2.20;0.45;;;;;;;;;;5010812;28;20041;-49